CST,Max TemperatureF,Mean TemperatureF,Min TemperatureF,Max Dew PointF,MeanDew PointF,Min DewpointF,Max Humidity, Mean Humidity, Min Humidity, Max Sea Level PressureIn, Mean Sea Level PressureIn, Min Sea Level PressureIn, Max VisibilityMiles, Mean VisibilityMiles, Min VisibilityMiles, Max Wind SpeedMPH, Mean Wind SpeedMPH, Max Gust SpeedMPH,PrecipitationIn, CloudCover, Events, WindDirDegrees
2013-11-1,89,71,53,60,47,32,86,50,16,30.03,29.88,29.81,10,10,6,22,4,32,0.00,0,,291
2013-11-2,80,68,55,43,37,30,62,35,17,30.27,30.18,30.05,10,10,10,15,9,24,0.00,0,,20
2013-11-3,75,60,46,52,41,31,80,51,22,30.21,30.11,30.01,10,10,9,15,3,,0.00,1,,110
2013-11-4,73,68,62,65,59,54,84,72,57,30.03,29.98,29.92,10,10,10,9,5,,0.00,7,,98
2013-11-5,84,76,68,70,66,64,94,77,53,30.00,29.95,29.85,10,8,1,14,6,17,0.00,8,,121
2013-11-6,81,70,60,70,61,40,90,70,47,30.29,30.08,29.93,10,10,7,23,7,30,0.00,5,Rain,26
2013-11-7,66,59,52,39,34,26,55,40,23,30.44,30.38,30.29,10,10,10,14,8,18,0.00,0,,25
2013-11-8,68,62,55,49,41,34,64,48,30,30.35,30.26,30.15,10,10,10,10,5,,0.00,1,Rain,78
2013-11-9,73,65,57,60,54,48,84,67,53,30.18,30.13,30.08,10,10,7,7,2,,0.01,5,Rain,115
2013-11-10,71,68,64,60,57,54,81,68,58,30.27,30.21,30.14,10,10,10,8,5,,0.00,8,,60
2013-11-11,79,70,61,56,53,50,75,59,39,30.25,30.19,30.12,10,10,10,7,3,,0.00,4,,74
2013-11-12,71,61,50,55,46,26,72,59,39,30.61,30.41,30.21,10,10,10,23,9,31,0.00,3,,14
2013-11-13,61,50,39,30,24,20,63,40,21,30.64,30.53,30.40,10,10,9,12,7,18,0.00,0,,47
2013-11-14,64,50,36,47,35,25,77,55,28,30.38,30.19,30.04,10,10,10,9,1,,0.00,2,,150
2013-11-15,81,66,50,61,53,46,87,66,41,30.01,29.94,29.84,10,10,6,10,3,,0.00,1,,149
2013-11-16,84,74,64,72,66,61,94,75,54,29.92,29.83,29.73,10,9,4,21,8,28,0.00,6,,173
2013-11-17,90,82,73,72,68,64,88,73,42,29.91,29.82,29.75,10,10,9,7,4,,0.00,5,,169
2013-11-18,82,73,64,67,64,59,94,76,52,30.09,29.99,29.90,10,8,2,14,4,17,0.00,2,Rain,55
2013-11-19,73,66,60,64,50,42,84,55,41,30.11,30.02,29.97,10,10,7,10,7,,0.00,6,,83
2013-11-20,77,70,62,70,61,55,88,74,60,30.00,29.93,29.85,10,10,5,10,6,,0.00,8,Rain,97
2013-11-21,82,78,73,72,70,68,88,79,60,30.01,29.94,29.89,10,9,6,12,6,,0.00,8,,155
2013-11-22,77,58,39,72,48,33,89,79,71,30.38,30.20,30.00,10,10,10,20,10,29,0.00,8,Rain,30
2013-11-23,46,42,39,41,37,34,93,83,68,30.45,30.39,30.35,10,6,2,15,9,21,0.01,8,Rain,1
2013-11-24,45,41,37,41,36,34,93,82,65,30.48,30.37,30.30,10,6,2,13,8,25,0.41,8,Rain,29
2013-11-25,46,42,37,40,37,35,93,88,74,30.31,30.19,30.07,10,6,2,14,6,,0.17,8,Rain,6
2013-11-26,54,48,42,36,33,28,73,61,43,30.38,30.25,30.12,10,10,10,16,10,26,0.00,5,,330
2013-11-27,55,46,36,30,24,15,76,50,21,30.50,30.41,30.36,10,10,9,13,5,20,0.00,0,,13
2013-11-28,57,46,36,32,27,20,79,56,23,30.46,30.40,30.34,10,10,10,5,1,,0.00,0,,124
2013-11-29,66,52,37,49,43,30,93,74,52,30.49,30.42,30.34,10,8,2,9,4,,0.00,5,,75
2013-11-30,72,59,46,56,51,43,90,72,55,30.36,30.27,30.17,10,10,8,9,2,,0.00,6,,146